createdAt,value
2023-05-22T00:02:39.084Z,9.83
2023-05-22T00:06:44.109Z,9.83
2023-05-22T00:10:45.878Z,8.90
2023-05-22T00:14:47.652Z,9.43
2023-05-22T00:18:49.721Z,11.83
2023-05-22T00:22:52.779Z,11.73
2023-05-22T00:26:54.682Z,10.33
2023-05-22T00:30:56.552Z,10.17
2023-05-22T00:34:58.399Z,9.90
2023-05-22T00:39:00.156Z,9.73
2023-05-22T00:43:08.515Z,9.63
2023-05-22T00:47:10.561Z,10.87
2023-05-22T00:51:12.383Z,10.47
2023-05-22T00:55:14.474Z,10.67
2023-05-22T00:59:17.033Z,10.50
2023-05-22T01:03:19.606Z,10.10
2023-05-22T01:07:21.697Z,11.37
2023-05-22T01:11:28.429Z,12.63
2023-05-22T01:15:46.777Z,12.23
2023-05-22T01:20:06.943Z,10.97
2023-05-22T01:24:33.127Z,10.13
2023-05-22T01:28:52.626Z,13.13
2023-05-22T01:32:54.844Z,12.03
2023-05-22T01:36:56.698Z,10.30
2023-05-22T01:40:58.540Z,11.47
2023-05-22T01:45:00.324Z,11.33
2023-05-22T01:49:02.109Z,11.40
2023-05-22T01:53:24.843Z,11.20
2023-05-22T01:57:33.010Z,11.00
2023-05-22T02:01:41.302Z,12.17
2023-05-22T02:05:49.194Z,11.77
2023-05-22T02:10:04.215Z,12.03
2023-05-22T02:14:12.248Z,11.00
2023-05-22T02:18:14.209Z,11.27
2023-05-22T02:22:22.198Z,10.97
2023-05-22T02:26:24.155Z,13.50
2023-05-22T02:30:26.018Z,12.27
2023-05-22T02:34:27.804Z,11.60
2023-05-22T02:38:29.565Z,12.93
2023-05-22T02:42:31.444Z,10.97
2023-05-22T02:46:33.364Z,11.93
2023-05-22T02:50:35.348Z,10.33
2023-05-22T02:54:37.184Z,12.03
2023-05-22T02:58:39.593Z,10.87
2023-05-22T03:02:41.334Z,11.17
2023-05-22T03:06:46.343Z,13.73
2023-05-22T03:10:48.474Z,11.47
2023-05-22T03:14:50.545Z,11.13
2023-05-22T03:19:13.834Z,10.97
2023-05-22T03:23:15.741Z,11.77
2023-05-22T03:27:17.539Z,12.23
2023-05-22T03:31:19.339Z,10.87
2023-05-22T03:35:21.244Z,10.60
2023-05-22T03:39:23.025Z,11.33
2023-05-22T03:43:24.778Z,10.97
2023-05-22T03:47:26.655Z,10.83
2023-05-22T03:51:28.454Z,9.63
2023-05-22T03:55:30.912Z,11.30
2023-05-22T03:59:32.638Z,10.23
2023-05-22T04:03:34.455Z,10.73
2023-05-22T04:07:36.611Z,10.57
2023-05-22T04:11:42.672Z,10.60
2023-05-22T04:20:19.138Z,10.90
2023-05-22T04:29:18.457Z,10.60
2023-05-22T04:33:22.455Z,10.50
2023-05-22T04:37:26.642Z,11.20
2023-05-22T04:41:30.816Z,10.05
2023-05-22T04:45:35.633Z,9.80
2023-05-22T04:49:39.194Z,10.57
2023-05-22T04:53:41.161Z,10.13
2023-05-22T04:57:45.792Z,10.23
2023-05-22T05:01:47.926Z,11.23
2023-05-22T05:05:49.744Z,10.25
2023-05-22T05:09:51.984Z,9.35
2023-05-22T05:13:54.136Z,10.15
2023-05-22T05:17:56.290Z,10.32
2023-05-22T05:21:58.230Z,10.40
2023-05-22T05:26:33.218Z,9.98
2023-05-22T05:30:44.349Z,9.98
2023-05-22T05:34:46.421Z,10.77
2023-05-22T05:38:48.297Z,10.90
2023-05-22T05:42:50.333Z,9.60
2023-05-22T05:46:52.678Z,9.35
2023-05-22T05:50:54.488Z,9.07
2023-05-22T05:54:56.342Z,11.25
2023-05-22T05:58:58.162Z,10.30
2023-05-22T06:03:00.013Z,8.48
2023-05-22T06:07:03.090Z,9.90
2023-05-22T06:11:07.430Z,8.90
2023-05-22T06:19:52.040Z,10.23
2023-05-22T06:23:53.893Z,8.00
2023-05-22T06:27:55.951Z,8.13
2023-05-22T06:31:57.752Z,8.00
2023-05-22T06:35:59.679Z,8.93
2023-05-22T06:40:01.815Z,10.73
2023-05-22T06:44:03.911Z,9.05
2023-05-22T06:48:06.374Z,7.38
2023-05-22T06:52:16.352Z,8.25
2023-05-22T06:56:18.882Z,7.18
2023-05-22T07:00:21.986Z,7.45
2023-05-22T07:04:24.061Z,7.13
2023-05-22T07:08:28.356Z,7.13
2023-05-22T07:12:31.581Z,6.75
2023-05-22T07:16:33.564Z,7.13
2023-05-22T07:20:35.731Z,6.50
2023-05-22T07:24:37.702Z,6.38
2023-05-22T07:28:41.868Z,8.07
2023-05-22T07:32:43.675Z,6.38
2023-05-22T07:36:45.866Z,6.00
2023-05-22T07:40:50.772Z,6.80
2023-05-22T07:44:52.678Z,6.63
2023-05-22T07:48:54.525Z,5.70
2023-05-22T07:52:56.584Z,6.88
2023-05-22T07:56:58.426Z,5.80
2023-05-22T08:01:02.997Z,6.15
2023-05-22T08:05:05.584Z,7.55
2023-05-22T08:09:07.514Z,8.15
2023-05-22T08:13:10.135Z,5.43
2023-05-22T08:17:12.224Z,5.35
2023-05-22T08:21:14.020Z,6.72
2023-05-22T08:25:16.168Z,6.63
2023-05-22T08:29:18.793Z,8.25
2023-05-22T08:33:20.739Z,4.90
2023-05-22T08:37:22.503Z,6.10
2023-05-22T08:41:24.226Z,4.53
2023-05-22T08:45:26.315Z,4.75
2023-05-22T08:49:28.165Z,5.35
2023-05-22T08:53:34.186Z,4.40
2023-05-22T08:57:36.029Z,4.72
2023-05-22T09:01:37.912Z,4.13
2023-05-22T09:05:42.499Z,5.30
2023-05-22T09:09:44.375Z,4.22
2023-05-22T09:13:46.635Z,4.53
2023-05-22T09:17:48.421Z,4.20
2023-05-22T09:21:50.910Z,4.25
2023-05-22T09:25:57.508Z,4.40
2023-05-22T09:29:59.302Z,5.40
2023-05-22T09:34:01.500Z,5.05
2023-05-22T09:38:34.492Z,4.18
2023-05-22T09:42:40.467Z,5.38
2023-05-22T09:46:57.004Z,5.43
2023-05-22T09:51:09.248Z,6.30
2023-05-22T09:55:16.976Z,5.78
2023-05-22T09:59:46.232Z,5.88
2023-05-22T10:04:24.511Z,6.32
2023-05-22T10:08:28.678Z,5.88
2023-05-22T10:12:32.948Z,5.88
2023-05-22T10:16:40.367Z,5.75
2023-05-22T10:20:42.311Z,6.18
2023-05-22T10:24:46.369Z,5.45
2023-05-22T10:28:53.407Z,9.93
2023-05-22T10:33:06.368Z,6.63
2023-05-22T10:37:24.140Z,10.27
2023-05-22T10:41:27.091Z,6.45
2023-05-22T10:45:32.042Z,4.88
2023-05-22T10:49:33.891Z,5.03
2023-05-22T10:53:36.163Z,5.15
2023-05-22T10:57:38.482Z,4.90
2023-05-22T11:01:40.633Z,4.93
2023-05-22T11:05:42.554Z,5.32
2023-05-22T11:09:47.791Z,5.32
2023-05-22T11:13:52.437Z,4.68
2023-05-22T11:17:55.513Z,5.45
2023-05-22T11:22:00.672Z,4.50
2023-05-22T11:26:22.755Z,4.80
2023-05-22T11:30:33.589Z,5.85
2023-05-22T11:34:38.479Z,4.90
2023-05-22T11:38:42.189Z,4.40
2023-05-22T11:42:44.196Z,5.20
2023-05-22T11:46:47.077Z,5.03
2023-05-22T11:50:49.053Z,4.68
2023-05-22T11:54:52.211Z,5.80
2023-05-22T11:58:54.042Z,5.60
2023-05-22T12:02:55.964Z,4.00
2023-05-22T12:06:57.838Z,5.20
2023-05-22T12:10:59.800Z,5.88
2023-05-22T12:15:01.731Z,6.05
2023-05-22T12:19:10.559Z,4.70
2023-05-22T12:23:20.786Z,5.90
2023-05-22T12:27:22.839Z,5.70
2023-05-22T12:31:25.096Z,5.20
2023-05-22T12:35:29.194Z,7.47
2023-05-22T12:39:39.721Z,6.43
2023-05-22T12:43:52.712Z,4.65
2023-05-22T12:47:54.682Z,4.38
2023-05-22T12:51:56.525Z,6.80
2023-05-22T12:56:01.207Z,7.13
2023-05-22T13:00:04.693Z,5.05
2023-05-22T13:04:08.780Z,4.15
2023-05-22T13:08:10.635Z,6.63
2023-05-22T13:12:21.426Z,7.82
2023-05-22T13:16:23.636Z,6.15
2023-05-22T13:20:28.289Z,7.10
2023-05-22T13:24:30.151Z,4.53
2023-05-22T13:28:34.162Z,6.63
2023-05-22T13:32:36.091Z,4.65
2023-05-22T13:36:38.054Z,17.40
2023-05-22T13:40:39.894Z,4.75
2023-05-22T13:44:41.671Z,6.22
2023-05-22T13:48:44.032Z,6.03
2023-05-22T13:52:45.818Z,5.25
2023-05-22T13:56:50.091Z,7.18
2023-05-22T14:00:51.879Z,4.63
2023-05-22T14:04:56.764Z,5.65
2023-05-22T14:08:59.158Z,4.50
2023-05-22T14:13:00.931Z,4.72
2023-05-22T14:17:08.717Z,5.32
2023-05-22T14:22:48.049Z,4.55
2023-05-22T14:25:57.371Z,5.00
2023-05-22T14:30:19.661Z,5.72
2023-05-22T14:39:08.913Z,5.25
2023-05-22T14:43:14.042Z,6.40
2023-05-22T14:47:16.042Z,11.55
2023-05-22T14:51:36.431Z,4.97
2023-05-22T14:55:41.373Z,5.05
2023-05-22T14:59:43.404Z,5.72
2023-05-22T15:03:50.055Z,5.53
2023-05-22T15:08:02.312Z,5.38
2023-05-22T15:12:04.256Z,5.22
2023-05-22T15:16:06.074Z,6.13
2023-05-22T15:20:09.295Z,7.65
2023-05-22T15:24:11.806Z,6.30
2023-05-22T15:28:13.538Z,6.07
2023-05-22T15:32:23.897Z,5.65
2023-05-22T15:36:27.479Z,4.18
2023-05-22T15:40:29.445Z,5.93
2023-05-22T15:44:31.455Z,4.40
2023-05-22T15:48:41.559Z,7.07
2023-05-22T15:52:45.839Z,6.03
2023-05-22T15:56:57.113Z,5.60
2023-05-22T16:00:59.804Z,8.23
2023-05-22T16:05:01.970Z,6.28
2023-05-22T16:09:04.543Z,3.78
2023-05-22T16:13:06.496Z,4.45
2023-05-22T16:17:11.511Z,6.38
2023-05-22T16:21:13.496Z,5.88
2023-05-22T16:25:25.668Z,4.60
2023-05-22T16:29:27.539Z,5.00
2023-05-22T16:33:29.485Z,4.85
2023-05-22T16:37:31.744Z,4.93
2023-05-22T16:41:34.177Z,5.45
2023-05-22T16:45:36.272Z,8.65
2023-05-22T16:49:39.661Z,6.03
2023-05-22T16:53:44.164Z,5.65
2023-05-22T16:57:46.930Z,6.05
2023-05-22T17:01:49.105Z,5.13
2023-05-22T17:05:51.368Z,8.43
2023-05-22T17:09:53.258Z,4.15
2023-05-22T17:13:59.670Z,5.33
2023-05-22T17:18:05.747Z,4.83
2023-05-22T17:22:10.452Z,9.23
2023-05-22T17:26:13.087Z,4.63
2023-05-22T17:30:17.515Z,4.83
2023-05-22T17:34:21.971Z,3.87
2023-05-22T17:38:28.952Z,6.40
2023-05-22T17:42:33.870Z,4.73
2023-05-22T17:46:50.855Z,4.10
2023-05-22T17:51:23.938Z,4.53
2023-05-22T17:55:54.383Z,5.73
2023-05-22T18:00:35.597Z,7.40
2023-05-22T18:05:35.503Z,4.83
2023-05-22T18:10:27.684Z,5.33
2023-05-22T18:14:34.776Z,5.73
2023-05-22T18:18:53.395Z,7.27
2023-05-22T18:22:56.897Z,5.53
2023-05-22T18:26:58.874Z,7.90
2023-05-22T18:31:04.255Z,4.00
2023-05-22T18:35:12.351Z,8.37
2023-05-22T18:39:17.653Z,4.47
2023-05-22T18:43:25.118Z,6.90
2023-05-22T18:47:28.866Z,5.10
2023-05-22T18:51:34.197Z,6.53
2023-05-22T18:55:43.579Z,4.70
2023-05-22T19:00:02.155Z,4.40
2023-05-22T19:04:15.231Z,5.47
2023-05-22T19:08:29.721Z,9.17
2023-05-22T19:12:58.280Z,6.07
2023-05-22T19:17:05.687Z,7.30
2023-05-22T19:21:08.836Z,5.40
2023-05-22T19:25:13.199Z,5.20
2023-05-22T19:29:30.279Z,5.03
2023-05-22T19:33:37.699Z,5.83
2023-05-22T19:37:43.605Z,6.10
2023-05-22T19:41:48.509Z,4.83
2023-05-22T19:46:08.998Z,5.43
2023-05-22T19:50:11.959Z,6.50
2023-05-22T19:54:13.807Z,4.60
2023-05-22T19:58:17.840Z,6.13
2023-05-22T20:02:19.668Z,4.33
2023-05-22T20:06:22.237Z,4.10
2023-05-22T20:10:25.921Z,7.77
2023-05-22T20:14:27.737Z,4.47
2023-05-22T20:18:32.126Z,4.77
2023-05-22T20:22:33.953Z,4.53
2023-05-22T20:26:35.806Z,5.50
2023-05-22T20:30:37.626Z,5.47
2023-05-22T20:34:40.163Z,5.50
2023-05-22T20:38:45.367Z,4.90
2023-05-22T20:42:47.626Z,8.20
2023-05-22T20:46:50.343Z,5.57
2023-05-22T20:50:52.332Z,5.67
2023-05-22T20:54:54.058Z,7.43
2023-05-22T20:58:56.282Z,7.43
2023-05-22T21:02:58.617Z,4.23
2023-05-22T21:07:00.456Z,6.20
2023-05-22T21:11:02.185Z,5.17
2023-05-22T21:15:04.389Z,4.90
2023-05-22T21:19:09.694Z,4.83
2023-05-22T21:23:11.564Z,5.37
2023-05-22T21:27:13.376Z,5.77
2023-05-22T21:31:15.156Z,5.87
2023-05-22T21:35:16.990Z,5.60
2023-05-22T21:39:18.696Z,4.73
2023-05-22T21:43:20.423Z,5.80
2023-05-22T21:47:22.372Z,8.70
2023-05-22T21:51:24.246Z,5.53
2023-05-22T21:55:26.001Z,5.40
2023-05-22T21:59:27.733Z,6.70
2023-05-22T22:03:29.596Z,5.03
2023-05-22T22:07:31.430Z,7.40
2023-05-22T22:11:33.308Z,6.70
2023-05-22T22:15:36.691Z,4.33
2023-05-22T22:19:38.424Z,5.33
2023-05-22T22:23:40.617Z,5.10
2023-05-22T22:27:42.316Z,6.17
2023-05-22T22:31:44.158Z,4.40
2023-05-22T22:35:45.958Z,7.77
2023-05-22T22:39:48.135Z,6.83
2023-05-22T22:43:50.054Z,4.90
2023-05-22T22:47:52.745Z,6.43
2023-05-22T22:51:54.805Z,6.47
2023-05-22T22:55:56.863Z,4.93
2023-05-22T22:59:58.767Z,5.87
2023-05-22T23:04:00.633Z,6.50
2023-05-22T23:08:02.446Z,7.43
2023-05-22T23:12:06.406Z,6.53
2023-05-22T23:16:08.354Z,9.30
2023-05-22T23:20:10.883Z,8.67
2023-05-22T23:24:12.915Z,7.50
2023-05-22T23:28:14.741Z,7.93
2023-05-22T23:32:16.474Z,5.33
2023-05-22T23:36:18.596Z,5.53
2023-05-22T23:40:20.450Z,6.40
2023-05-22T23:44:22.185Z,7.17
2023-05-22T23:48:23.949Z,6.73
2023-05-22T23:52:26.552Z,5.60
2023-05-22T23:56:28.348Z,6.23
